createdAt,value
2023-09-06T00:00:13.587Z,26.91
2023-09-06T00:02:41.753Z,26.84
2023-09-06T00:05:08.799Z,26.78
2023-09-06T00:07:35.804Z,26.84
2023-09-06T00:10:02.591Z,26.83
2023-09-06T00:12:30.636Z,26.84
2023-09-06T00:14:57.523Z,26.77
2023-09-06T00:17:24.413Z,26.74
2023-09-06T00:19:51.279Z,26.79
2023-09-06T00:22:19.341Z,26.69
2023-09-06T00:24:46.133Z,26.67
2023-09-06T00:27:15.595Z,26.66
2023-09-06T00:29:42.555Z,26.57
2023-09-06T00:32:11.851Z,26.58
2023-09-06T00:34:38.677Z,26.48
2023-09-06T00:37:06.484Z,26.45
2023-09-06T00:39:33.397Z,26.44
2023-09-06T00:42:01.568Z,26.39
2023-09-06T00:44:28.989Z,26.31
2023-09-06T00:46:56.078Z,26.40
2023-09-06T00:49:23.889Z,26.23
2023-09-06T00:51:50.805Z,26.19
2023-09-06T00:54:17.643Z,26.09
2023-09-06T00:56:44.444Z,26.04
2023-09-06T00:59:13.938Z,25.97
2023-09-06T01:01:40.977Z,25.87
2023-09-06T01:04:07.912Z,25.92
2023-09-06T01:06:36.759Z,25.96
2023-09-06T01:09:07.026Z,26.03
2023-09-06T01:11:38.489Z,25.99
2023-09-06T01:14:05.665Z,25.93
2023-09-06T01:16:41.010Z,25.86
2023-09-06T01:19:11.184Z,25.84
2023-09-06T01:21:43.022Z,25.77
2023-09-06T01:24:11.622Z,25.63
2023-09-06T01:26:38.699Z,25.54
2023-09-06T01:29:05.800Z,25.52
2023-09-06T01:31:32.731Z,25.59
2023-09-06T01:33:59.718Z,25.61
2023-09-06T01:36:27.016Z,25.51
2023-09-06T01:38:53.848Z,25.52
2023-09-06T01:41:20.795Z,25.53
2023-09-06T01:43:47.754Z,25.51
2023-09-06T01:46:14.667Z,25.53
2023-09-06T01:48:41.711Z,25.43
2023-09-06T01:51:09.933Z,25.40
2023-09-06T01:53:36.850Z,25.31
2023-09-06T01:56:03.759Z,25.36
2023-09-06T01:58:34.267Z,25.35
2023-09-06T02:01:02.336Z,25.32
2023-09-06T02:03:29.467Z,25.39
2023-09-06T02:05:56.682Z,25.36
2023-09-06T02:08:23.521Z,25.31
2023-09-06T02:10:50.425Z,25.28
2023-09-06T02:13:17.301Z,25.30
2023-09-06T02:15:44.162Z,25.22
2023-09-06T02:18:16.491Z,25.17
2023-09-06T02:20:44.901Z,25.21
2023-09-06T02:23:11.775Z,25.15
2023-09-06T02:25:39.499Z,25.21
2023-09-06T02:28:07.504Z,25.26
2023-09-06T02:30:37.591Z,25.33
2023-09-06T02:33:15.306Z,25.28
2023-09-06T02:35:42.722Z,25.33
2023-09-06T02:38:10.976Z,25.34
2023-09-06T02:40:38.960Z,25.35
2023-09-06T02:43:06.111Z,25.31
2023-09-06T02:45:39.098Z,25.26
2023-09-06T02:48:17.175Z,25.24
2023-09-06T02:50:46.303Z,25.14
2023-09-06T02:53:21.510Z,25.12
2023-09-06T02:55:53.199Z,25.16
2023-09-06T02:58:25.477Z,25.16
2023-09-06T03:01:00.335Z,25.07
2023-09-06T03:03:31.600Z,25.07
2023-09-06T03:05:59.689Z,25.11
2023-09-06T03:08:30.326Z,25.05
2023-09-06T03:10:58.205Z,24.99
2023-09-06T03:13:25.431Z,25.02
2023-09-06T03:15:53.127Z,25.01
2023-09-06T03:18:20.334Z,25.03
2023-09-06T03:20:48.762Z,24.99
2023-09-06T03:23:25.161Z,25.01
2023-09-06T03:25:59.249Z,24.92
2023-09-06T03:28:36.053Z,24.98
2023-09-06T03:31:10.302Z,25.04
2023-09-06T03:33:37.646Z,24.90
2023-09-06T03:36:08.830Z,24.86
2023-09-06T03:38:37.607Z,24.92
2023-09-06T03:41:08.387Z,24.85
2023-09-06T03:43:35.604Z,24.83
2023-09-06T03:46:08.657Z,24.80
2023-09-06T03:48:36.532Z,24.84
2023-09-06T03:51:04.294Z,24.78
2023-09-06T03:53:34.157Z,24.84
2023-09-06T03:56:01.887Z,24.78
2023-09-06T03:58:37.178Z,24.76
2023-09-06T04:01:12.034Z,24.75
2023-09-06T04:03:42.031Z,24.56
2023-09-06T04:06:12.200Z,24.67
2023-09-06T04:08:40.063Z,24.57
2023-09-06T04:11:07.291Z,24.54
2023-09-06T04:13:34.392Z,24.52
2023-09-06T04:16:01.240Z,24.50
2023-09-06T04:18:31.744Z,24.47
2023-09-06T04:21:01.200Z,24.47
2023-09-06T04:23:28.830Z,24.48
2023-09-06T04:25:57.932Z,24.46
2023-09-06T04:28:28.952Z,24.47
2023-09-06T04:30:59.160Z,24.42
2023-09-06T04:33:29.927Z,24.38
2023-09-06T04:36:05.351Z,24.34
2023-09-06T04:38:34.234Z,24.36
2023-09-06T04:41:03.588Z,24.33
2023-09-06T04:43:37.269Z,24.27
2023-09-06T04:46:06.106Z,24.25
2023-09-06T04:48:37.677Z,24.26
2023-09-06T04:51:06.913Z,24.22
2023-09-06T04:53:34.646Z,24.23
2023-09-06T04:56:05.293Z,24.26
2023-09-06T04:58:39.015Z,24.35
2023-09-06T05:01:07.362Z,24.36
2023-09-06T05:03:34.953Z,24.44
2023-09-06T05:06:03.063Z,24.43
2023-09-06T05:08:31.412Z,24.35
2023-09-06T05:11:00.726Z,24.37
2023-09-06T05:13:30.960Z,24.37
2023-09-06T05:16:02.983Z,24.26
2023-09-06T05:18:32.133Z,24.37
2023-09-06T05:21:00.580Z,24.38
2023-09-06T05:23:29.434Z,24.33
2023-09-06T05:25:57.666Z,24.32
2023-09-06T05:28:30.045Z,24.32
2023-09-06T05:31:02.821Z,24.33
2023-09-06T05:33:32.884Z,24.27
2023-09-06T05:36:01.203Z,24.38
2023-09-06T05:38:28.346Z,24.43
2023-09-06T05:40:55.958Z,24.47
2023-09-06T05:43:29.782Z,24.54
2023-09-06T05:45:57.530Z,24.52
2023-09-06T05:48:24.707Z,24.51
2023-09-06T05:50:52.945Z,24.58
2023-09-06T05:53:20.619Z,24.65
2023-09-06T05:55:48.119Z,24.64
2023-09-06T05:58:14.942Z,24.69
2023-09-06T06:00:42.929Z,24.65
2023-09-06T06:03:11.824Z,24.70
2023-09-06T06:05:39.369Z,24.67
2023-09-06T06:08:08.101Z,24.52
2023-09-06T06:10:36.277Z,24.52
2023-09-06T06:13:05.844Z,24.51
2023-09-06T06:15:33.002Z,24.54
2023-09-06T06:17:59.828Z,24.46
2023-09-06T06:20:38.435Z,24.44
2023-09-06T06:23:09.350Z,24.58
2023-09-06T06:25:37.202Z,24.61
2023-09-06T06:28:04.380Z,24.60
2023-09-06T06:30:31.504Z,24.60
2023-09-06T06:33:01.475Z,24.64
2023-09-06T06:35:28.893Z,24.51
2023-09-06T06:37:56.713Z,24.51
2023-09-06T06:40:25.475Z,24.59
2023-09-06T06:42:52.915Z,24.51
2023-09-06T06:45:20.487Z,24.54
2023-09-06T06:47:47.629Z,24.56
2023-09-06T06:50:15.104Z,24.63
2023-09-06T06:52:45.744Z,24.77
2023-09-06T06:55:13.061Z,24.78
2023-09-06T06:57:39.947Z,24.58
2023-09-06T07:00:08.141Z,24.70
2023-09-06T07:02:36.196Z,24.72
2023-09-06T07:05:06.112Z,24.74
2023-09-06T07:07:34.210Z,24.83
2023-09-06T07:10:00.999Z,24.93
2023-09-06T07:12:27.951Z,24.97
2023-09-06T07:14:55.251Z,25.02
2023-09-06T07:17:22.323Z,25.13
2023-09-06T07:19:51.619Z,25.19
2023-09-06T07:22:18.458Z,25.23
2023-09-06T07:24:45.294Z,25.27
2023-09-06T07:27:12.407Z,25.36
2023-09-06T07:29:39.289Z,25.36
2023-09-06T07:32:06.289Z,25.48
2023-09-06T07:34:33.575Z,25.56
2023-09-06T07:37:00.427Z,25.65
2023-09-06T07:39:27.414Z,25.70
2023-09-06T07:41:54.893Z,25.65
2023-09-06T07:44:21.690Z,25.73
2023-09-06T07:46:50.111Z,25.81
2023-09-06T07:49:17.545Z,25.92
2023-09-06T07:51:44.571Z,25.97
2023-09-06T07:54:12.228Z,26.16
2023-09-06T07:56:40.585Z,26.25
2023-09-06T07:59:13.811Z,26.33
2023-09-06T08:01:41.044Z,26.37
2023-09-06T08:04:10.728Z,26.49
2023-09-06T08:06:37.666Z,26.61
2023-09-06T08:09:04.801Z,26.79
2023-09-06T08:11:31.693Z,26.93
2023-09-06T08:13:58.433Z,27.05
2023-09-06T08:16:25.874Z,27.11
2023-09-06T08:18:52.825Z,27.17
2023-09-06T08:21:20.426Z,27.31
2023-09-06T08:23:47.533Z,27.48
2023-09-06T08:26:15.093Z,27.56
2023-09-06T08:28:42.216Z,27.65
2023-09-06T08:31:09.455Z,27.76
2023-09-06T08:33:36.505Z,27.70
2023-09-06T08:36:03.719Z,27.82
2023-09-06T08:38:31.023Z,27.98
2023-09-06T08:40:58.127Z,28.12
2023-09-06T08:43:35.877Z,28.26
2023-09-06T08:46:16.863Z,28.26
2023-09-06T08:48:44.852Z,28.44
2023-09-06T08:51:12.689Z,28.55
2023-09-06T08:53:43.801Z,28.68
2023-09-06T08:56:11.316Z,28.80
2023-09-06T08:58:38.233Z,28.90
2023-09-06T09:01:05.390Z,29.04
2023-09-06T09:03:33.060Z,29.04
2023-09-06T09:06:01.467Z,29.12
2023-09-06T09:08:30.240Z,29.21
2023-09-06T09:11:13.099Z,29.05
2023-09-06T09:13:41.194Z,29.22
2023-09-06T09:16:10.318Z,29.07
2023-09-06T09:18:42.416Z,29.11
2023-09-06T09:21:11.784Z,29.25
2023-09-06T09:23:47.850Z,29.25
2023-09-06T09:26:15.457Z,29.27
2023-09-06T09:28:42.706Z,29.36
2023-09-06T09:31:16.836Z,29.41
2023-09-06T09:33:47.235Z,29.31
2023-09-06T09:36:15.276Z,29.34
2023-09-06T09:38:43.774Z,29.34
2023-09-06T09:41:12.071Z,29.32
2023-09-06T09:43:39.072Z,29.39
2023-09-06T09:46:06.053Z,29.36
2023-09-06T09:48:33.234Z,29.32
2023-09-06T09:51:09.037Z,29.37
2023-09-06T09:53:37.543Z,29.48
2023-09-06T09:56:08.871Z,29.43
2023-09-06T09:58:37.106Z,29.51
2023-09-06T10:01:07.374Z,29.64
2023-09-06T10:03:40.577Z,29.61
2023-09-06T10:06:08.373Z,29.57
2023-09-06T10:08:37.939Z,29.65
2023-09-06T10:11:08.952Z,29.75
2023-09-06T10:13:39.379Z,29.82
2023-09-06T10:16:07.902Z,29.89
2023-09-06T10:18:37.519Z,29.92
2023-09-06T10:21:05.571Z,29.76
2023-09-06T10:23:32.902Z,29.86
2023-09-06T10:26:01.754Z,29.81
2023-09-06T10:28:33.482Z,29.70
2023-09-06T10:31:08.936Z,29.56
2023-09-06T10:33:43.452Z,29.61
2023-09-06T10:36:13.547Z,29.33
2023-09-06T10:38:52.751Z,29.24
2023-09-06T10:41:20.975Z,29.11
2023-09-06T10:44:00.140Z,29.19
2023-09-06T10:46:34.719Z,29.22
2023-09-06T10:49:22.295Z,29.33
2023-09-06T10:52:09.769Z,29.32
2023-09-06T10:54:45.229Z,29.29
2023-09-06T10:57:14.495Z,29.43
2023-09-06T10:59:46.460Z,29.55
2023-09-06T11:02:27.909Z,29.69
2023-09-06T11:05:15.933Z,29.65
2023-09-06T11:10:15.363Z,29.73
2023-09-06T11:12:42.364Z,29.59
2023-09-06T11:15:11.189Z,29.60
2023-09-06T11:17:38.206Z,29.68
2023-09-06T11:20:13.671Z,29.58
2023-09-06T11:23:00.481Z,29.65
2023-09-06T11:25:31.038Z,29.77
2023-09-06T11:28:01.346Z,29.71
2023-09-06T11:30:32.770Z,29.54
2023-09-06T11:32:59.906Z,29.47
2023-09-06T11:35:35.542Z,29.60
2023-09-06T11:38:04.172Z,29.60
2023-09-06T11:40:34.732Z,29.50
2023-09-06T11:43:06.962Z,29.55
2023-09-06T11:45:34.416Z,29.65
2023-09-06T11:48:07.129Z,29.59
2023-09-06T11:50:35.605Z,29.44
2023-09-06T11:53:11.324Z,29.46
2023-09-06T11:55:44.302Z,29.41
2023-09-06T11:58:23.002Z,29.25
2023-09-06T12:00:51.739Z,29.44
2023-09-06T12:03:23.328Z,29.32
2023-09-06T12:05:54.699Z,29.62
2023-09-06T12:08:24.018Z,29.57
2023-09-06T12:11:06.535Z,29.55
2023-09-06T12:13:38.590Z,29.38
2023-09-06T12:16:10.375Z,29.26
2023-09-06T12:18:37.601Z,29.17
2023-09-06T12:21:06.192Z,29.20
2023-09-06T12:23:37.753Z,29.38
2023-09-06T12:26:05.582Z,29.45
2023-09-06T12:28:35.681Z,29.08
2023-09-06T12:33:36.841Z,29.10
2023-09-06T12:36:06.352Z,29.18
2023-09-06T12:38:33.740Z,29.21
2023-09-06T12:41:01.891Z,29.34
2023-09-06T12:43:30.504Z,29.47
2023-09-06T12:45:58.695Z,29.57
2023-09-06T12:48:26.890Z,29.60
2023-09-06T12:50:57.743Z,29.17
2023-09-06T12:53:24.876Z,29.10
2023-09-06T12:55:51.810Z,29.11
2023-09-06T12:58:19.128Z,29.00
2023-09-06T13:00:47.264Z,28.86
2023-09-06T13:03:14.311Z,28.87
2023-09-06T13:05:42.361Z,28.88
2023-09-06T13:08:09.433Z,29.10
2023-09-06T13:10:36.291Z,29.09
2023-09-06T13:13:03.235Z,28.82
2023-09-06T13:15:31.348Z,28.64
2023-09-06T13:17:58.714Z,28.79
2023-09-06T13:20:25.653Z,28.58
2023-09-06T13:22:52.501Z,28.54
2023-09-06T13:25:19.541Z,28.70
2023-09-06T13:27:47.896Z,28.94
2023-09-06T13:30:15.318Z,29.04
2023-09-06T13:32:42.185Z,29.20
2023-09-06T13:35:09.220Z,29.22
2023-09-06T13:37:36.050Z,29.30
2023-09-06T13:40:03.435Z,29.34
2023-09-06T13:42:30.490Z,29.05
2023-09-06T13:44:57.719Z,29.01
2023-09-06T13:47:25.382Z,28.89
2023-09-06T13:49:53.045Z,28.68
2023-09-06T13:52:20.033Z,28.97
2023-09-06T13:54:47.072Z,29.08
2023-09-06T13:57:14.532Z,29.04
2023-09-06T13:59:42.669Z,29.07
2023-09-06T14:02:09.807Z,28.98
2023-09-06T14:04:37.521Z,28.95
2023-09-06T14:07:04.910Z,28.62
2023-09-06T14:09:31.996Z,28.59
2023-09-06T14:11:58.838Z,28.65
2023-09-06T14:14:25.744Z,28.65
2023-09-06T14:16:54.564Z,28.71
2023-09-06T14:19:21.381Z,28.56
2023-09-06T14:21:48.312Z,28.43
2023-09-06T14:24:16.671Z,28.57
2023-09-06T14:26:44.843Z,28.39
2023-09-06T14:29:13.666Z,28.28
2023-09-06T14:31:41.651Z,28.58
2023-09-06T14:34:08.956Z,28.50
2023-09-06T14:36:36.107Z,28.52
2023-09-06T14:39:07.204Z,28.61
2023-09-06T14:41:36.715Z,28.53
2023-09-06T14:44:04.655Z,28.67
2023-09-06T14:46:32.195Z,28.75
2023-09-06T14:49:01.674Z,28.78
2023-09-06T14:51:28.452Z,28.60
2023-09-06T14:53:55.847Z,28.73
2023-09-06T14:56:22.710Z,28.82
2023-09-06T14:58:49.547Z,28.60
2023-09-06T15:01:16.360Z,28.34
2023-09-06T15:03:43.311Z,28.41
2023-09-06T15:06:11.716Z,28.64
2023-09-06T15:08:40.272Z,28.76
2023-09-06T15:11:07.456Z,28.76
2023-09-06T15:13:34.293Z,28.71
2023-09-06T15:16:01.305Z,28.47
2023-09-06T15:18:28.196Z,28.51
2023-09-06T15:20:55.134Z,28.63
2023-09-06T15:23:26.914Z,28.64
2023-09-06T15:25:53.899Z,28.81
2023-09-06T15:28:20.773Z,28.86
2023-09-06T15:30:47.671Z,28.77
2023-09-06T15:33:14.552Z,28.85
2023-09-06T15:35:41.516Z,28.71
2023-09-06T15:38:08.963Z,28.78
2023-09-06T15:40:36.381Z,28.76
2023-09-06T15:43:04.390Z,28.90
2023-09-06T15:45:31.970Z,29.03
2023-09-06T15:48:00.418Z,29.12
2023-09-06T15:50:29.706Z,29.11
2023-09-06T15:52:56.766Z,29.08
2023-09-06T15:55:24.168Z,29.23
2023-09-06T15:57:52.150Z,29.30
2023-09-06T16:00:31.448Z,29.22
2023-09-06T16:02:59.943Z,29.09
2023-09-06T16:05:27.388Z,29.10
2023-09-06T16:07:57.500Z,29.03
2023-09-06T16:10:27.624Z,29.12
2023-09-06T16:12:56.121Z,29.12
2023-09-06T16:15:25.986Z,28.99
2023-09-06T16:17:54.058Z,29.10
2023-09-06T16:20:21.382Z,29.15
2023-09-06T16:22:48.229Z,29.06
2023-09-06T16:25:15.158Z,29.12
2023-09-06T16:27:42.113Z,29.10
2023-09-06T16:30:10.102Z,28.88
2023-09-06T16:32:37.493Z,28.84
2023-09-06T16:35:08.620Z,28.94
2023-09-06T16:37:36.541Z,29.09
2023-09-06T16:40:03.478Z,28.94
2023-09-06T16:42:30.333Z,28.95
2023-09-06T16:44:57.137Z,28.93
2023-09-06T16:47:24.413Z,29.00
2023-09-06T16:49:52.682Z,29.00
2023-09-06T16:52:19.634Z,29.04
2023-09-06T16:54:46.597Z,28.75
2023-09-06T16:57:13.368Z,28.81
2023-09-06T16:59:40.250Z,28.80
2023-09-06T17:02:07.412Z,28.81
2023-09-06T17:04:34.227Z,28.70
2023-09-06T17:07:00.993Z,28.58
2023-09-06T17:09:29.256Z,28.50
2023-09-06T17:11:56.136Z,28.52
2023-09-06T17:14:22.904Z,28.46
2023-09-06T17:16:49.838Z,28.33
2023-09-06T17:19:16.854Z,28.28
2023-09-06T17:21:43.739Z,28.31
2023-09-06T17:24:10.638Z,28.29
2023-09-06T17:26:37.731Z,28.35
2023-09-06T17:29:07.668Z,28.32
2023-09-06T17:31:35.681Z,28.36
2023-09-06T17:34:03.143Z,28.36
2023-09-06T17:36:30.290Z,28.37
2023-09-06T17:38:57.480Z,28.30
2023-09-06T17:41:24.859Z,28.22
2023-09-06T17:43:52.794Z,28.15
2023-09-06T17:46:25.667Z,28.12
2023-09-06T17:48:56.574Z,28.08
2023-09-06T17:51:24.148Z,28.02
2023-09-06T17:53:51.945Z,28.05
2023-09-06T17:56:21.331Z,28.04
2023-09-06T17:58:50.619Z,28.06
2023-09-06T18:01:20.323Z,28.06
2023-09-06T18:03:52.520Z,28.03
2023-09-06T18:06:26.552Z,27.94
2023-09-06T18:09:05.747Z,27.81
2023-09-06T18:11:32.786Z,27.82
2023-09-06T18:13:59.868Z,27.77
2023-09-06T18:16:26.973Z,27.75
2023-09-06T18:18:55.871Z,27.69
2023-09-06T18:21:23.016Z,27.73
2023-09-06T18:23:50.118Z,27.65
2023-09-06T18:26:17.044Z,27.70
2023-09-06T18:28:44.147Z,27.68
2023-09-06T18:31:10.994Z,27.59
2023-09-06T18:33:38.586Z,27.50
2023-09-06T18:36:10.328Z,27.45
2023-09-06T18:38:38.501Z,27.51
2023-09-06T18:41:11.146Z,27.60
2023-09-06T18:43:39.958Z,27.59
2023-09-06T18:46:08.005Z,27.55
2023-09-06T18:48:36.687Z,27.56
2023-09-06T18:51:09.950Z,27.53
2023-09-06T18:53:38.259Z,27.52
2023-09-06T18:56:07.390Z,27.47
2023-09-06T18:58:37.351Z,27.46
2023-09-06T19:01:14.677Z,27.32
2023-09-06T19:03:42.952Z,27.27
2023-09-06T19:06:13.932Z,27.30
2023-09-06T19:08:41.858Z,27.35
2023-09-06T19:11:11.325Z,27.35
2023-09-06T19:13:39.382Z,27.29
2023-09-06T19:16:07.185Z,27.27
2023-09-06T19:18:34.635Z,27.25
2023-09-06T19:21:01.738Z,27.29
2023-09-06T19:23:28.668Z,27.29
2023-09-06T19:25:56.630Z,27.21
2023-09-06T19:28:24.974Z,27.27
2023-09-06T19:30:59.847Z,27.29
2023-09-06T19:33:27.969Z,27.31
2023-09-06T19:35:55.965Z,27.18
2023-09-06T19:38:23.670Z,27.10
2023-09-06T19:40:53.402Z,27.11
2023-09-06T19:43:21.112Z,27.13
2023-09-06T19:45:53.928Z,27.09
2023-09-06T19:48:20.806Z,27.07
2023-09-06T19:50:49.717Z,27.04
2023-09-06T19:53:16.720Z,26.99
2023-09-06T19:55:45.774Z,26.97
2023-09-06T19:58:13.890Z,26.95
2023-09-06T20:00:40.731Z,26.93
2023-09-06T20:03:07.770Z,26.92
2023-09-06T20:05:36.127Z,26.90
2023-09-06T20:08:03.082Z,26.92
2023-09-06T20:10:30.890Z,26.94
2023-09-06T20:12:57.735Z,26.92
2023-09-06T20:15:24.531Z,26.96
2023-09-06T20:17:51.494Z,26.94
2023-09-06T20:20:21.094Z,26.88
2023-09-06T20:22:48.003Z,26.83
2023-09-06T20:25:14.826Z,26.78
2023-09-06T20:27:41.734Z,26.77
2023-09-06T20:30:09.235Z,26.77
2023-09-06T20:32:39.028Z,26.78
2023-09-06T20:35:08.587Z,26.80
2023-09-06T20:37:43.365Z,26.80
2023-09-06T20:40:17.234Z,26.76
2023-09-06T20:42:44.242Z,26.67
2023-09-06T20:45:11.101Z,26.73
2023-09-06T20:47:38.070Z,26.84
2023-09-06T20:50:07.582Z,26.82
2023-09-06T20:52:36.620Z,26.79
2023-09-06T20:55:06.616Z,26.80
2023-09-06T20:57:33.540Z,26.77
2023-09-06T21:00:08.506Z,26.81
2023-09-06T21:02:35.322Z,26.85
2023-09-06T21:05:02.456Z,26.85
2023-09-06T21:07:32.092Z,26.74
2023-09-06T21:09:58.908Z,26.62
2023-09-06T21:12:34.195Z,26.64
2023-09-06T21:15:03.513Z,26.60
2023-09-06T21:17:30.385Z,26.58
2023-09-06T21:20:02.943Z,26.60
2023-09-06T21:22:31.353Z,26.58
2023-09-06T21:24:58.148Z,26.57
2023-09-06T21:27:25.162Z,26.51
2023-09-06T21:29:52.082Z,26.47
2023-09-06T21:32:18.954Z,26.52
2023-09-06T21:34:46.046Z,26.54
2023-09-06T21:37:12.880Z,26.56
2023-09-06T21:39:39.746Z,26.56
2023-09-06T21:42:06.968Z,26.56
2023-09-06T21:44:33.810Z,26.55
2023-09-06T21:47:03.441Z,26.50
2023-09-06T21:49:30.605Z,26.53
2023-09-06T21:51:57.397Z,26.52
2023-09-06T21:54:26.654Z,26.47
2023-09-06T21:56:53.483Z,26.44
2023-09-06T21:59:21.546Z,26.40
2023-09-06T22:01:50.490Z,26.37
2023-09-06T22:04:35.851Z,26.34
2023-09-06T22:07:21.444Z,26.25
2023-09-06T22:10:09.134Z,26.19
2023-09-06T22:12:55.712Z,26.15
2023-09-06T22:15:22.628Z,26.13
2023-09-06T22:17:49.603Z,26.12
2023-09-06T22:20:20.290Z,26.13
2023-09-06T22:22:49.775Z,26.13
2023-09-06T22:25:16.737Z,26.12
2023-09-06T22:27:44.114Z,26.12
2023-09-06T22:30:12.617Z,26.09
2023-09-06T22:32:39.506Z,26.08
2023-09-06T22:35:06.721Z,26.04
2023-09-06T22:37:37.488Z,26.02
2023-09-06T22:40:06.270Z,26.02
2023-09-06T22:42:35.816Z,25.96
2023-09-06T22:45:02.559Z,25.98
2023-09-06T22:47:33.903Z,25.97
2023-09-06T22:50:00.813Z,25.94
2023-09-06T22:52:28.218Z,25.92
2023-09-06T22:54:56.136Z,25.89
2023-09-06T22:57:25.720Z,25.86
2023-09-06T22:59:55.533Z,25.84
2023-09-06T23:02:22.453Z,25.80
2023-09-06T23:04:50.849Z,25.76
2023-09-06T23:07:22.382Z,25.65
2023-09-06T23:09:51.945Z,25.58
2023-09-06T23:12:19.470Z,25.56
2023-09-06T23:14:48.493Z,25.56
2023-09-06T23:17:17.988Z,25.50
2023-09-06T23:19:45.386Z,25.49
2023-09-06T23:22:14.774Z,25.38
2023-09-06T23:24:44.997Z,25.41
2023-09-06T23:27:19.027Z,25.41
2023-09-06T23:29:53.662Z,25.39
2023-09-06T23:32:26.273Z,25.42
2023-09-06T23:34:56.569Z,25.41
2023-09-06T23:37:23.733Z,25.37
2023-09-06T23:39:52.403Z,25.37
2023-09-06T23:42:20.856Z,25.36
2023-09-06T23:44:47.872Z,25.34
2023-09-06T23:47:15.013Z,25.37
2023-09-06T23:49:45.558Z,25.34
2023-09-06T23:52:14.333Z,25.32
2023-09-06T23:54:47.866Z,25.28
2023-09-06T23:57:18.555Z,25.27
2023-09-06T23:59:45.655Z,25.24
